Stacja Pogody Warszawa Praga Północ 


Stacja Pogody
Warszawa Praga Północ

 Szerokość N 52° 15 '43"    Długość E 21° 01' 22"    Wysokość 89 m n.p.m.


Wschód Słońca 07:09 Górowanie Słońca 11:22 Zachód Słońca 15:34 strzelec
Data juliańska 2456985.307 Odległość Słońca 147681151 km Średn. kątowa Słońca 0,324°
Wschód Księżyca 07:46 Zachód Księżyca 16:42 Wiek Księżyca 1 dni Moon
Widoczność Księżyca 1,73% Odległość Księżyca 376915 km Średn. kątowa Księżyca 0,317°
Dzień krótszy od najdłuższego o: 08:22 Długość dnia 08:25 Imieniny Adeli, Klemensa, Felicyty




Warunki pogodowe uaktualnione 23-11-2014, o godzinie 19:17
Temperatura 2.6 °C ↓ Temperatura odczuwalna 0.1 °C
Punkt rosy 1.4 °C Humidex 0.8 °C
Deszcz na godzinę 0.0 mm Wilgotność względna 92% ↑
Prędkość wiatru (średnia) 0 km/h → Prędkość wiatru (podmuch) 4 km/h
Kierunek wiatru S Skala Beaufort'a 1
Ciśnienie względne  1032 hPa Trend ciśnienia stabilne
Ciśnienie bezwzględne  1020 hPa Podstawa chmur 232.4 m
METAR EPWA 231800Z 10007KT 7000 BKN016 02/01 Q1032 NOSIG
TAF TAF EPWA 231730Z 2318/2418 14006KT 8000 BKN015





 a

Valid XHTML 1.0 Transitional Valid CSS!